Time;durP1;ratioP1;P1;durP2;ratioP2;P2;SDS_P1;SDS_P2;PMS_P1;PMS_P2;Temp;Humidity;BMP_temperature;BMP_pressure;BME280_temperature;BME280_humidity;BME280_pressure;Samples;Min_cycle;Max_cycle;Signal;HPM_P1;HPM_P2
2023/04/02 00:02:31;;;;;;;0.52;0.52;;;;;;;-0.55;85.10;101220.03;5064783;28;20097;-65
2023/04/02 00:05:15;;;;;;;0.60;0.60;;;;;;;-0.58;85.30;101221.53;5062852;28;20116;-65
2023/04/02 00:07:43;;;;;;;0.50;0.50;;;;;;;-0.58;85.39;101232.63;5064733;28;20113;-65
2023/04/02 00:11:00;;;;;;;0.50;0.50;;;;;;;-0.59;85.38;101227.44;5064622;28;20025;-66
2023/04/02 00:13:31;;;;;;;0.70;0.70;;;;;;;-0.61;85.48;101231.56;4983162;28;20027;-65
2023/04/02 00:15:57;;;;;;;0.70;0.70;;;;;;;-0.65;85.49;101233.97;4983634;28;20070;-65
2023/04/02 00:18:24;;;;;;;0.60;0.60;;;;;;;-0.65;85.52;101239.06;4983290;28;20360;-65
2023/04/02 00:20:55;;;;;;;0.50;0.50;;;;;;;-0.64;85.56;101243.38;4983031;28;20156;-65
2023/04/02 00:23:22;;;;;;;0.55;0.55;;;;;;;-0.64;85.54;101245.06;4983797;28;20038;-65
2023/04/02 00:25:47;;;;;;;3.25;3.05;;;;;;;-0.68;85.56;101245.69;4967206;28;20026;-65
2023/04/02 00:28:16;;;;;;;0.60;0.60;;;;;;;-0.69;85.53;101249.03;4983363;28;20549;-65
2023/04/02 00:30:59;;;;;;;0.60;0.60;;;;;;;-0.70;85.78;101265.16;4983659;28;20139;-65
2023/04/02 00:33:29;;;;;;;0.50;0.50;;;;;;;-0.73;85.82;101262.41;4983564;28;20039;-66
2023/04/02 00:35:55;;;;;;;0.55;0.55;;;;;;;-0.79;85.90;101261.31;4983555;28;20077;-65
2023/04/02 00:38:26;;;;;;;0.60;0.60;;;;;;;-0.76;85.97;101261.47;4983072;28;20102;-65
2023/04/02 00:40:54;;;;;;;0.70;0.70;;;;;;;-0.80;85.93;101271.44;4983262;28;20050;-64
2023/04/02 00:43:23;;;;;;;0.50;0.50;;;;;;;-0.79;86.47;101268.97;4983397;28;20027;-65
2023/04/02 00:45:55;;;;;;;0.50;0.50;;;;;;;-0.72;86.16;101270.19;4983473;28;20184;-66
2023/04/02 00:48:43;;;;;;;0.60;0.60;;;;;;;-0.71;86.05;101278.69;5064719;28;20488;-65
2023/04/02 00:51:26;;;;;;;1.25;1.25;;;;;;;-0.77;85.88;101277.56;5064617;28;20393;-66
2023/04/02 00:53:55;;;;;;;0.50;0.50;;;;;;;-0.76;85.70;101278.44;5064113;28;20025;-67
2023/04/02 00:56:33;;;;;;;0.60;0.60;;;;;;;-0.84;85.79;101280.59;5064218;28;20017;-66
2023/04/02 00:58:59;;;;;;;0.50;0.50;;;;;;;-0.85;85.87;101290.72;5064277;28;20464;-67
2023/04/02 01:01:35;;;;;;;0.50;0.50;;;;;;;-0.88;86.08;101292.28;5064396;28;20384;-66
2023/04/02 01:04:02;;;;;;;0.50;0.50;;;;;;;-0.88;86.07;101299.94;5064345;28;20025;-67
2023/04/02 01:06:33;;;;;;;0.60;0.60;;;;;;;-0.88;86.04;101299.09;5066138;28;20049;-67
2023/04/02 01:09:26;;;;;;;0.60;0.60;;;;;;;-0.89;86.15;101305.84;5068084;28;20024;-66
2023/04/02 01:12:04;;;;;;;0.50;0.50;;;;;;;-0.88;86.28;101304.19;5067986;28;20480;-66
2023/04/02 01:14:44;;;;;;;0.50;0.50;;;;;;;-0.93;86.28;101311.59;5067809;28;20033;-66
2023/04/02 01:17:29;;;;;;;0.50;0.50;;;;;;;-0.94;86.20;101314.06;5067819;28;20032;-66
2023/04/02 01:20:00;;;;;;;0.50;0.50;;;;;;;-0.99;86.14;101321.44;5067992;28;20021;-67
2023/04/02 01:22:36;;;;;;;0.70;0.70;;;;;;;-1.04;85.91;101308.44;5067602;28;20029;-66
2023/04/02 01:25:05;;;;;;;0.60;0.60;;;;;;;-1.06;86.11;101314.25;5067690;28;20032;-66
2023/04/02 01:27:49;;;;;;;0.60;0.60;;;;;;;-1.09;86.37;101306.44;5067628;28;20063;-66
2023/04/02 01:30:15;;;;;;;0.60;0.60;;;;;;;-1.02;86.45;101318.72;5067828;28;20021;-66
2023/04/02 01:32:42;;;;;;;0.50;0.50;;;;;;;-1.03;86.68;101322.06;5067574;28;20058;-66
2023/04/02 01:35:09;;;;;;;0.50;0.50;;;;;;;-1.07;86.82;101323.56;5067652;28;20025;-67
2023/04/02 01:37:43;;;;;;;0.50;0.50;;;;;;;-1.03;86.55;101324.63;5067463;28;20021;-66
2023/04/02 01:40:32;;;;;;;0.50;0.50;;;;;;;-1.03;86.76;101340.81;5067429;28;20037;-66
2023/04/02 01:43:23;;;;;;;0.50;0.50;;;;;;;-1.05;86.73;101337.28;5049566;28;20350;-66
2023/04/02 01:45:49;;;;;;;0.60;0.60;;;;;;;-1.08;86.75;101339.66;5067270;28;20040;-66
2023/04/02 01:48:18;;;;;;;0.55;0.55;;;;;;;-1.07;86.82;101353.31;5049645;28;20021;-66
2023/04/02 01:50:47;;;;;;;0.60;0.60;;;;;;;-1.09;86.78;101353.22;5067359;28;20016;-66
2023/04/02 01:53:15;;;;;;;0.60;0.60;;;;;;;-1.12;86.72;101355.59;5067286;28;20100;-66
2023/04/02 01:55:47;;;;;;;0.55;0.55;;;;;;;-1.13;86.68;101358.91;5067286;28;20128;-66
2023/04/02 01:58:13;;;;;;;;;;;;;;;-1.14;86.73;101358.06;5067506;28;20025;-66
2023/04/02 02:01:19;;;;;;;0.50;0.50;;;;;;;-1.21;86.67;101360.16;5067195;28;19909;-66
2023/04/02 02:03:45;;;;;;;0.60;0.60;;;;;;;-1.24;86.68;101358.34;5067041;28;20025;-66
2023/04/02 02:06:13;;;;;;;0.50;0.50;;;;;;;-1.29;86.56;101368.28;5048978;28;20049;-66
2023/04/02 02:08:54;;;;;;;0.60;0.60;;;;;;;-1.31;86.69;101364.75;5066806;28;20203;-66
2023/04/02 02:11:23;;;;;;;0.60;0.60;;;;;;;-1.34;86.68;101364.59;5066891;28;20476;-66
2023/04/02 02:13:58;;;;;;;0.57;0.57;;;;;;;-1.37;86.63;101374.59;5066942;28;20063;-66
2023/04/02 02:16:26;;;;;;;0.50;0.50;;;;;;;-1.37;86.68;101379.69;5066730;28;20088;-66
2023/04/02 02:18:55;;;;;;;0.60;0.60;;;;;;;-1.39;86.70;101381.31;5066838;28;20044;-66
2023/04/02 02:21:38;;;;;;;0.50;0.50;;;;;;;-1.39;86.73;101384.72;5066539;28;20029;-66
2023/04/02 02:24:13;;;;;;;0.50;0.50;;;;;;;-1.38;86.71;101389.03;5066691;28;20029;-65
2023/04/02 02:26:41;;;;;;;0.50;0.50;;;;;;;-1.38;86.84;101393.25;5066446;28;20035;-66
2023/04/02 02:29:13;;;;;;;0.60;0.60;;;;;;;-1.38;86.73;101396.69;5066232;28;20045;-66
2023/04/02 02:31:40;;;;;;;;;;;;;;;-1.37;86.76;101402.63;5067071;28;20151;-66
2023/04/02 02:34:15;;;;;;;0.60;0.60;;;;;;;-1.43;86.56;101407.38;5047939;28;20012;-66
2023/04/02 02:36:58;;;;;;;0.60;0.60;;;;;;;-1.47;86.55;101405.47;5066398;28;20021;-67
2023/04/02 02:39:43;;;;;;;0.50;0.50;;;;;;;-1.54;86.47;101405.09;5066374;28;20047;-67
2023/04/02 02:42:27;;;;;;;0.50;0.50;;;;;;;-1.61;86.67;101402.97;5066311;28;20028;-66
2023/04/02 02:44:55;;;;;;;0.60;0.60;;;;;;;-1.66;86.62;101402.72;5066208;28;20029;-66
2023/04/02 02:47:27;;;;;;;0.60;0.60;;;;;;;-1.68;86.68;101409.41;5066134;28;20035;-66
2023/04/02 02:49:56;;;;;;;0.80;0.80;;;;;;;-1.70;86.61;101418.63;5066232;28;20354;-66
2023/04/02 02:52:26;;;;;;;0.50;0.50;;;;;;;-1.75;86.75;101425.09;5065882;28;20024;-66
2023/04/02 02:54:57;;;;;;;0.50;0.50;;;;;;;-1.79;86.98;101418.09;5065835;28;20464;-66
2023/04/02 02:57:27;;;;;;;0.70;0.70;;;;;;;-1.80;86.86;101426.50;5066083;28;20055;-66
2023/04/02 02:59:55;;;;;;;0.60;0.60;;;;;;;-1.82;86.81;101431.50;5066213;28;20029;-66
2023/04/02 03:02:22;;;;;;;0.60;0.60;;;;;;;-1.83;86.83;101445.03;5065658;28;20468;-65
2023/04/02 03:04:51;;;;;;;0.70;0.70;;;;;;;-1.87;86.93;101441.41;5065757;28;20028;-65
2023/04/02 03:07:20;;;;;;;0.50;0.50;;;;;;;-1.91;86.99;101442.03;5065666;28;20053;-66
2023/04/02 03:09:49;;;;;;;0.60;0.60;;;;;;;-1.90;87.13;101443.78;5065651;28;20027;-66
2023/04/02 03:12:38;;;;;;;0.50;0.50;;;;;;;-1.90;87.08;101451.41;5065637;28;20036;-66
2023/04/02 03:15:18;;;;;;;0.60;0.60;;;;;;;-1.91;87.24;101451.31;5065469;28;20041;-65
2023/04/02 03:17:52;;;;;;;0.50;0.50;;;;;;;-1.95;87.37;101449.38;5065696;28;20032;-66
2023/04/02 03:20:29;;;;;;;0.60;0.60;;;;;;;-1.92;87.38;101460.66;5065493;28;20396;-65
2023/04/02 03:23:22;;;;;;;0.60;0.60;;;;;;;-1.93;87.57;101458.00;5065502;28;20025;-66
2023/04/02 03:25:58;;;;;;;0.60;0.60;;;;;;;-1.98;87.32;101460.25;5065475;28;20051;-66
2023/04/02 03:28:29;;;;;;;0.60;0.60;;;;;;;-1.92;87.39;101467.38;5065016;28;20021;-65
2023/04/02 03:31:21;;;;;;;0.80;0.80;;;;;;;-1.93;87.52;101470.72;5065619;28;20023;-65
2023/04/02 03:34:12;;;;;;;0.60;0.60;;;;;;;-1.93;87.48;101476.69;5065212;28;20056;-65
2023/04/02 03:36:47;;;;;;;0.65;0.65;;;;;;;-1.92;87.49;101482.66;5065279;28;20020;-66
2023/04/02 03:39:19;;;;;;;0.60;0.60;;;;;;;-1.95;87.41;101480.78;5047066;28;20048;-65
2023/04/02 03:42:03;;;;;;;;;;;;;;;-1.96;87.50;101488.34;5065750;28;20028;-66
2023/04/02 03:44:37;;;;;;;0.50;0.50;;;;;;;-1.95;87.36;101495.19;5065108;28;19940;-66
2023/04/02 03:47:41;;;;;;;0.60;0.60;;;;;;;-1.91;87.52;101492.03;5065124;28;20025;-66
2023/04/02 03:50:14;;;;;;;0.60;0.60;;;;;;;-1.90;87.69;101501.47;5052983;28;20063;-66
2023/04/02 03:52:40;;;;;;;1.30;1.30;;;;;;;-1.91;87.71;101495.47;5064778;28;20404;-65
2023/04/02 03:55:16;;;;;;;0.50;0.50;;;;;;;-1.86;87.80;101505.94;5064829;28;20043;-66
2023/04/02 03:58:02;;;;;;;0.50;0.50;;;;;;;-1.84;87.90;101500.94;5065137;28;20021;-66
2023/04/02 04:00:51;;;;;;;0.60;0.60;;;;;;;-1.80;88.05;101510.50;5065159;28;20053;-65
2023/04/02 04:03:29;;;;;;;0.60;0.60;;;;;;;-1.76;88.14;101513.31;5064894;28;20020;-66
2023/04/02 04:05:57;;;;;;;0.60;0.60;;;;;;;-1.79;88.21;101515.69;5064753;28;20049;-65
2023/04/02 04:08:50;;;;;;;0.50;0.50;;;;;;;-1.67;88.18;101527.41;5065014;28;20552;-66
2023/04/02 04:11:21;;;;;;;0.60;0.60;;;;;;;-1.67;88.06;101518.09;5035132;28;20057;-66
2023/04/02 04:14:12;;;;;;;0.60;0.60;;;;;;;-1.60;88.07;101526.09;5063684;28;20283;-66
2023/04/02 04:16:48;;;;;;;0.60;0.60;;;;;;;-1.63;87.87;101531.91;5037085;28;20043;-66
2023/04/02 04:19:23;;;;;;;0.60;0.60;;;;;;;-1.66;87.89;101534.28;5064540;28;20452;-66
2023/04/02 04:21:52;;;;;;;0.52;0.52;;;;;;;-1.67;87.83;101543.56;5064967;28;20063;-66
2023/04/02 04:24:20;;;;;;;0.60;0.60;;;;;;;-1.72;87.88;101546.59;5064584;28;20044;-66
2023/04/02 04:27:02;;;;;;;0.55;0.55;;;;;;;-1.73;87.86;101557.59;5064741;28;20468;-66
2023/04/02 04:29:52;;;;;;;0.60;0.60;;;;;;;-1.78;87.68;101550.56;5064747;28;20104;-65
2023/04/02 04:32:49;;;;;;;1.50;1.50;;;;;;;-1.77;87.68;101559.06;5064633;28;20100;-66
2023/04/02 04:35:25;;;;;;;0.50;0.50;;;;;;;-1.80;87.78;101564.88;5064736;28;20035;-66
2023/04/02 04:38:43;;;;;;;0.60;0.60;;;;;;;-1.79;87.63;101568.31;5064773;28;20074;-66
2023/04/02 04:41:15;;;;;;;0.60;0.60;;;;;;;-1.79;87.89;101578.47;5064105;28;20033;-66
2023/04/02 04:43:59;;;;;;;0.57;0.57;;;;;;;-1.82;87.95;101578.28;5068341;28;20025;-65
2023/04/02 04:46:31;;;;;;;0.60;0.60;;;;;;;-1.83;88.14;101574.84;5068470;28;20029;-66
2023/04/02 04:49:10;;;;;;;0.70;0.70;;;;;;;-1.59;88.65;101586.44;5068397;28;20017;-65
2023/04/02 04:51:42;;;;;;;1.30;1.30;;;;;;;-1.30;89.37;101584.75;5067129;28;20021;-66
2023/04/02 04:54:13;;;;;;;0.60;0.60;;;;;;;-0.96;89.99;101590.97;5067825;28;20056;-65
2023/04/02 04:56:39;;;;;;;0.55;0.55;;;;;;;-0.61;91.04;101599.78;5068195;28;20291;-66
2023/04/02 04:59:12;;;;;;;0.50;0.50;;;;;;;-0.20;92.16;101602.00;5068232;28;20029;-66
2023/04/02 05:01:45;;;;;;;0.50;0.50;;;;;;;0.13;93.17;101591.84;5068329;28;20096;-66
2023/04/02 05:04:20;;;;;;;0.60;0.60;;;;;;;0.54;93.99;101589.75;5068187;28;20036;-66
2023/04/02 05:06:54;;;;;;;0.60;0.60;;;;;;;0.95;94.63;101596.88;5067882;28;20557;-66
2023/04/02 05:09:33;;;;;;;0.50;0.50;;;;;;;1.35;95.05;101608.22;5068264;28;20111;-66
2023/04/02 05:12:17;;;;;;;0.50;0.50;;;;;;;1.65;95.29;101618.19;5067932;28;20055;-66
2023/04/02 05:15:00;;;;;;;0.50;0.50;;;;;;;2.07;95.88;101616.69;5067990;28;20021;-66
2023/04/02 05:17:35;;;;;;;0.50;0.50;;;;;;;2.33;95.70;101617.03;5068021;28;20044;-66
2023/04/02 05:20:15;;;;;;;0.60;0.60;;;;;;;2.42;95.29;101621.69;5067799;28;20033;-66
2023/04/02 05:22:53;;;;;;;0.50;0.50;;;;;;;2.72;95.89;101623.84;5067691;28;20039;-65
2023/04/02 05:25:24;;;;;;;0.50;0.50;;;;;;;3.13;96.53;101628.97;5067577;28;20025;-66
2023/04/02 05:28:14;;;;;;;0.98;0.98;;;;;;;3.68;96.93;101637.22;5067243;28;20063;-66
2023/04/02 05:30:51;;;;;;;0.50;0.50;;;;;;;3.86;96.04;101641.34;5067570;28;20033;-66
2023/04/02 05:33:20;;;;;;;0.50;0.50;;;;;;;4.08;95.14;101643.03;5049685;28;20025;-65
2023/04/02 05:35:50;;;;;;;0.50;0.50;;;;;;;4.28;94.40;101648.03;5067524;28;20021;-65
2023/04/02 05:38:28;;;;;;;0.50;0.50;;;;;;;4.43;93.36;101641.72;5067316;28;20111;-65
2023/04/02 05:41:21;;;;;;;0.50;0.50;;;;;;;4.56;91.76;101653.34;5065956;28;20071;-66
2023/04/02 05:43:50;;;;;;;0.50;0.50;;;;;;;4.76;92.07;101663.50;5067263;28;20103;-66
2023/04/02 05:46:21;;;;;;;0.40;0.40;;;;;;;4.88;91.84;101661.34;5067233;28;20434;-66
2023/04/02 05:48:51;;;;;;;0.50;0.50;;;;;;;5.17;92.12;101670.91;5067302;28;20100;-66
2023/04/02 05:51:41;;;;;;;0.40;0.40;;;;;;;5.30;88.89;101682.53;5067040;28;20051;-65
2023/04/02 05:54:35;;;;;;;0.40;0.40;;;;;;;5.19;86.47;101690.72;5066638;28;20064;-65
2023/04/02 05:57:24;;;;;;;0.77;0.77;;;;;;;5.32;87.69;101683.41;5067399;28;20024;-66
2023/04/02 05:59:54;;;;;;;0.50;0.50;;;;;;;5.63;85.49;101681.00;5067080;28;20017;-66
2023/04/02 06:02:29;;;;;;;0.40;0.40;;;;;;;5.53;82.59;101690.13;5065907;28;20247;-65
2023/04/02 06:05:11;;;;;;;0.45;0.45;;;;;;;5.48;83.66;101691.69;5066673;28;20020;-65
2023/04/02 06:07:55;;;;;;;;;;;;;;;5.66;82.73;101692.28;5067297;28;20072;-65
2023/04/02 06:10:26;;;;;;;0.50;0.50;;;;;;;5.74;83.63;101696.81;5064952;28;19913;-64
2023/04/02 06:13:02;;;;;;;0.50;0.50;;;;;;;5.81;82.92;101696.19;5066903;28;20055;-65
2023/04/02 06:15:30;;;;;;;0.50;0.50;;;;;;;5.88;82.90;101702.44;5066721;28;20108;-65
2023/04/02 06:18:00;;;;;;;0.50;0.50;;;;;;;6.07;83.87;101704.78;5066695;28;20028;-65
2023/04/02 06:20:27;;;;;;;0.40;0.40;;;;;;;6.36;83.25;101715.97;5066636;28;20029;-65
2023/04/02 06:23:16;;;;;;;0.50;0.50;;;;;;;6.68;82.97;101716.00;5065206;28;20032;-66
2023/04/02 06:25:47;;;;;;;0.50;0.50;;;;;;;6.99;83.03;101716.00;5066296;28;20027;-65
2023/04/02 06:28:16;;;;;;;0.43;0.43;;;;;;;7.29;83.12;101717.69;5066420;28;20025;-65
2023/04/02 06:30:43;;;;;;;0.50;0.50;;;;;;;7.11;79.97;101728.41;5066613;28;20040;-65
2023/04/02 06:33:11;;;;;;;0.43;0.43;;;;;;;7.00;80.25;101730.66;5066318;28;20032;-66
2023/04/02 06:35:41;;;;;;;0.47;0.47;;;;;;;7.12;77.04;101728.44;5066247;28;20025;-65
2023/04/02 06:38:24;;;;;;;0.40;0.40;;;;;;;7.26;77.98;101726.22;5066496;28;20110;-66
2023/04/02 06:40:56;;;;;;;0.50;0.50;;;;;;;7.33;77.66;101729.84;5066094;28;20017;-65
2023/04/02 06:43:34;;;;;;;0.50;0.50;;;;;;;7.61;74.73;101733.16;5066010;28;20033;-65
2023/04/02 06:46:07;;;;;;;0.57;0.57;;;;;;;7.80;75.23;101746.53;5066547;28;20088;-65
2023/04/02 06:48:35;;;;;;;0.50;0.50;;;;;;;8.04;73.55;101740.19;5066283;28;20043;-66
2023/04/02 06:51:06;;;;;;;0.40;0.40;;;;;;;8.61;77.02;101747.53;5064599;28;20047;-66
2023/04/02 06:53:57;;;;;;;0.40;0.40;;;;;;;8.72;72.56;101747.75;5065714;28;20092;-65
2023/04/02 06:56:43;;;;;;;0.40;0.40;;;;;;;8.65;72.19;101755.41;5061878;28;20495;-65
2023/04/02 06:59:09;;;;;;;0.52;0.52;;;;;;;8.67;71.04;101758.88;5065852;28;20109;-66
2023/04/02 07:01:44;;;;;;;0.57;0.57;;;;;;;8.50;72.31;101758.47;5066011;28;20376;-64
2023/04/02 07:04:10;;;;;;;0.50;0.50;;;;;;;8.38;67.72;101761.69;5065190;28;20021;-66
2023/04/02 07:06:35;;;;;;;0.40;0.40;;;;;;;8.48;68.84;101767.06;5065532;28;20321;-64
2023/04/02 07:09:02;;;;;;;0.50;0.50;;;;;;;8.88;68.67;101773.13;5065794;28;20032;-65
2023/04/02 07:11:28;;;;;;;0.50;0.50;;;;;;;9.00;67.00;101774.22;5065650;28;20048;-64
2023/04/02 07:13:53;;;;;;;0.50;0.50;;;;;;;9.10;66.81;101762.31;5065697;28;20017;-64
2023/04/02 07:16:21;;;;;;;0.40;0.40;;;;;;;9.13;67.19;101758.09;5065754;28;20021;-64
2023/04/02 07:18:47;;;;;;;0.50;0.50;;;;;;;8.87;64.17;101780.84;5065229;28;20077;-65
2023/04/02 07:21:13;;;;;;;0.40;0.40;;;;;;;8.70;63.82;101777.91;5065340;28;20028;-65
2023/04/02 07:23:39;;;;;;;0.40;0.40;;;;;;;8.93;63.81;101783.56;5065474;28;20025;-64
2023/04/02 07:26:06;;;;;;;0.40;0.40;;;;;;;8.79;62.89;101768.63;5065317;28;20028;-65
2023/04/02 07:28:32;;;;;;;0.40;0.40;;;;;;;8.87;64.84;101788.63;5065268;28;20025;-64
2023/04/02 07:30:58;;;;;;;0.40;0.40;;;;;;;8.88;61.53;101788.66;5065567;28;20031;-64
2023/04/02 07:33:27;;;;;;;0.40;0.40;;;;;;;8.78;62.30;101799.69;5065199;28;20465;-65
2023/04/02 07:35:55;;;;;;;0.40;0.40;;;;;;;8.88;63.40;101795.56;5065381;28;20051;-65
2023/04/02 07:38:20;;;;;;;0.40;0.40;;;;;;;9.13;61.76;101799.53;5065321;28;20060;-65
2023/04/02 07:40:46;;;;;;;0.40;0.40;;;;;;;9.13;58.45;101803.84;5065276;28;20020;-66
2023/04/02 07:43:11;;;;;;;0.40;0.40;;;;;;;9.59;59.04;101806.44;5063239;28;20040;-66
2023/04/02 07:45:37;;;;;;;0.40;0.40;;;;;;;9.96;58.85;101807.94;5064989;28;20025;-64
2023/04/02 07:48:07;;;;;;;0.40;0.40;;;;;;;10.07;58.97;101808.09;5065148;28;20080;-67
2023/04/02 07:50:33;;;;;;;0.40;0.40;;;;;;;9.92;55.74;101812.19;5060870;28;20032;-66
2023/04/02 07:52:59;;;;;;;0.40;0.40;;;;;;;9.79;56.86;101822.34;5064882;28;20029;-65
2023/04/02 07:55:25;;;;;;;0.40;0.40;;;;;;;9.67;56.79;101817.84;5064498;28;20104;-65
2023/04/02 07:57:53;;;;;;;0.40;0.40;;;;;;;9.67;55.01;101819.53;5065000;28;20091;-65
2023/04/02 08:00:19;;;;;;;0.40;0.40;;;;;;;9.86;56.94;101819.88;5064695;28;20040;-65
2023/04/02 08:02:46;;;;;;;0.40;0.40;;;;;;;10.03;55.67;101833.16;5064798;28;20052;-64
2023/04/02 08:05:12;;;;;;;0.98;0.98;;;;;;;10.17;54.05;101831.63;5064861;28;20021;-64
2023/04/02 08:07:38;;;;;;;0.40;0.40;;;;;;;10.08;53.01;101834.06;5064504;28;20099;-65
2023/04/02 08:10:04;;;;;;;0.55;0.55;;;;;;;10.13;53.66;101837.63;5064924;28;20019;-64
2023/04/02 08:12:30;;;;;;;0.40;0.40;;;;;;;10.04;54.38;101842.66;5064863;28;20552;-65
2023/04/02 08:14:55;;;;;;;0.40;0.40;;;;;;;10.20;54.51;101843.81;5066008;28;20044;-65
2023/04/02 08:17:21;;;;;;;0.40;0.40;;;;;;;10.24;55.55;101845.59;5068662;28;20036;-65
2023/04/02 08:19:46;;;;;;;0.40;0.40;;;;;;;10.28;53.04;101851.72;5068562;28;20036;-65
2023/04/02 08:22:12;;;;;;;0.45;0.45;;;;;;;10.05;51.52;101847.00;5068887;28;20107;-65
2023/04/02 08:24:38;;;;;;;0.40;0.40;;;;;;;9.75;49.32;101856.00;5068663;28;20025;-64
2023/04/02 08:27:03;;;;;;;0.40;0.40;;;;;;;9.54;51.19;101849.56;5068552;28;20021;-65
2023/04/02 08:29:31;;;;;;;0.40;0.40;;;;;;;9.98;47.63;101865.91;5068659;28;20028;-65
2023/04/02 08:32:00;;;;;;;0.50;0.50;;;;;;;9.85;47.35;101876.09;5068556;28;20021;-65
2023/04/02 08:34:26;;;;;;;0.40;0.40;;;;;;;9.98;49.47;101860.72;5068376;28;20111;-65
2023/04/02 08:36:55;;;;;;;0.40;0.40;;;;;;;10.15;47.74;101868.78;5068551;28;20047;-64
2023/04/02 08:39:22;;;;;;;1.02;1.02;;;;;;;9.94;46.29;101875.34;5068300;28;20031;-65
2023/04/02 08:42:15;;;;;;;0.40;0.40;;;;;;;9.91;44.22;101885.69;5068564;28;20025;-64
2023/04/02 08:44:51;;;;;;;0.40;0.40;;;;;;;9.77;41.04;101875.94;5050408;28;20031;-65
2023/04/02 08:47:19;;;;;;;0.50;0.50;;;;;;;9.61;40.43;101873.88;5068293;28;20064;-65
2023/04/02 08:49:55;;;;;;;0.50;0.50;;;;;;;9.89;40.94;101885.66;5050147;28;20017;-64
2023/04/02 08:52:25;;;;;;;0.40;0.40;;;;;;;9.90;38.46;101881.34;5068148;28;20028;-65
2023/04/02 08:54:52;;;;;;;0.50;0.50;;;;;;;9.90;38.96;101887.38;5050091;28;20024;-64
2023/04/02 08:57:43;;;;;;;0.40;0.40;;;;;;;9.99;37.30;101893.59;5068268;28;20024;-64
2023/04/02 09:00:39;;;;;;;0.60;0.60;;;;;;;9.79;35.03;101894.13;5068153;28;20017;-65
2023/04/02 09:03:09;;;;;;;0.50;0.50;;;;;;;9.68;35.25;101909.44;5068111;28;20452;-65
2023/04/02 09:05:39;;;;;;;0.50;0.50;;;;;;;9.47;34.60;101902.13;5067567;28;20028;-66
2023/04/02 09:08:16;;;;;;;0.50;0.50;;;;;;;9.46;33.29;101916.81;5068195;28;20054;-65
2023/04/02 09:11:06;;;;;;;0.40;0.40;;;;;;;9.39;32.35;101913.22;5066836;28;20021;-64
2023/04/02 09:13:36;;;;;;;1.70;1.63;;;;;;;9.26;31.72;101919.00;5047822;28;20045;-65
2023/04/02 09:16:21;;;;;;;0.50;0.50;;;;;;;9.42;32.46;101921.03;5067418;28;20071;-65
2023/04/02 09:18:49;;;;;;;0.40;0.40;;;;;;;9.65;30.99;101928.44;5067811;28;20044;-63
2023/04/02 09:21:20;;;;;;;0.50;0.50;;;;;;;9.47;31.11;101933.25;5067844;28;20056;-64
2023/04/02 09:23:46;;;;;;;0.50;0.50;;;;;;;9.32;29.25;101924.31;5067772;28;20052;-65
2023/04/02 09:26:22;;;;;;;0.50;0.50;;;;;;;9.18;30.97;101927.44;5066973;28;20036;-64
2023/04/02 09:28:51;;;;;;;0.45;0.45;;;;;;;9.36;31.32;101920.06;5067521;28;20086;-65
2023/04/02 09:31:46;;;;;;;0.40;0.40;;;;;;;9.97;32.26;101923.84;5067454;28;20029;-65
2023/04/02 09:34:33;;;;;;;0.43;0.43;;;;;;;10.59;28.90;101926.66;5065344;28;20040;-66
2023/04/02 09:37:25;;;;;;;0.40;0.40;;;;;;;10.78;28.58;101927.81;5067470;28;20468;-65
2023/04/02 09:39:50;;;;;;;0.40;0.40;;;;;;;10.68;29.85;101921.63;5061953;28;20037;-65
2023/04/02 09:42:33;;;;;;;0.40;0.40;;;;;;;10.80;29.17;101933.06;5066892;28;20075;-65
2023/04/02 09:45:11;;;;;;;0.40;0.40;;;;;;;10.98;28.34;101950.63;5066919;28;20025;-65
2023/04/02 09:47:38;;;;;;;0.40;0.40;;;;;;;11.12;29.56;101951.69;5067178;28;20056;-65
2023/04/02 09:50:26;;;;;;;0.40;0.40;;;;;;;11.43;30.10;101938.25;5067138;28;20024;-65
2023/04/02 09:52:52;;;;;;;0.40;0.40;;;;;;;11.76;30.42;101949.03;5056218;28;20036;-65
2023/04/02 09:55:27;;;;;;;0.40;0.40;;;;;;;12.05;27.03;101940.66;5067080;28;20029;-66
2023/04/02 09:58:25;;;;;;;0.40;0.40;;;;;;;11.97;29.17;101944.91;5067175;28;20039;-65
2023/04/02 10:00:52;;;;;;;0.40;0.40;;;;;;;12.20;28.43;101954.72;5022530;28;20116;-64
2023/04/02 10:03:30;;;;;;;0.40;0.40;;;;;;;11.97;27.00;101961.41;5066630;28;20025;-64
2023/04/02 10:06:22;;;;;;;0.40;0.40;;;;;;;11.56;28.17;101956.59;5048747;28;20052;-64
2023/04/02 10:08:47;;;;;;;0.50;0.50;;;;;;;11.45;28.64;101946.06;5062736;28;20029;-64
2023/04/02 10:11:22;;;;;;;0.40;0.40;;;;;;;11.62;27.92;101947.16;5065328;28;20036;-64
2023/04/02 10:13:59;;;;;;;0.40;0.40;;;;;;;11.60;27.99;101964.47;5066671;28;20257;-65
2023/04/02 10:16:31;;;;;;;0.40;0.40;;;;;;;11.47;26.97;101963.41;5066505;28;20033;-64
2023/04/02 10:19:01;;;;;;;0.40;0.40;;;;;;;11.49;27.28;101979.94;5066539;28;20028;-64
2023/04/02 10:21:36;;;;;;;0.50;0.50;;;;;;;11.33;27.68;101967.56;5066715;28;20108;-65
2023/04/02 10:24:04;;;;;;;0.40;0.40;;;;;;;11.52;27.02;101966.09;5066518;28;20054;-65
2023/04/02 10:26:29;;;;;;;0.40;0.40;;;;;;;11.82;26.24;101963.84;5066437;28;20161;-65
2023/04/02 10:29:20;;;;;;;0.40;0.40;;;;;;;12.03;26.62;101981.41;5066487;28;20017;-65
2023/04/02 10:32:01;;;;;;;0.40;0.40;;;;;;;12.29;26.79;101973.03;5066504;28;20044;-65
2023/04/02 10:34:51;;;;;;;0.30;0.30;;;;;;;12.45;25.71;101981.88;5066404;28;20029;-65
2023/04/02 10:37:34;;;;;;;0.40;0.40;;;;;;;12.40;27.23;101983.56;5066428;28;20032;-65
2023/04/02 10:40:11;;;;;;;0.40;0.40;;;;;;;12.58;25.53;101985.47;5065444;28;20117;-63
2023/04/02 10:42:59;;;;;;;0.40;0.40;;;;;;;12.50;26.87;101984.53;5066491;28;20078;-64
2023/04/02 10:45:44;;;;;;;0.40;0.40;;;;;;;12.63;27.66;101995.94;5026692;28;20055;-65
2023/04/02 10:48:42;;;;;;;0.40;0.40;;;;;;;12.85;27.27;101989.16;5066036;28;20032;-64
2023/04/02 10:51:38;;;;;;;0.30;0.30;;;;;;;13.54;28.54;101992.22;5066351;28;20055;-64
2023/04/02 10:54:16;;;;;;;0.30;0.30;;;;;;;13.56;26.84;101995.69;5065814;28;20021;-65
2023/04/02 10:56:44;;;;;;;0.40;0.40;;;;;;;13.46;27.34;101999.97;5066001;28;20029;-65
2023/04/02 10:59:18;;;;;;;0.40;0.40;;;;;;;13.63;26.54;101999.19;5065875;28;20052;-65
2023/04/02 11:01:47;;;;;;;0.32;0.32;;;;;;;13.68;26.59;102010.53;5066022;28;20042;-64
2023/04/02 11:04:23;;;;;;;0.40;0.40;;;;;;;13.24;26.00;102002.44;5065895;28;20021;-63
2023/04/02 11:06:55;;;;;;;0.85;0.85;;;;;;;12.60;26.18;102004.56;5065967;28;20044;-65
2023/04/02 11:09:25;;;;;;;0.40;0.40;;;;;;;12.45;25.46;102022.66;5065561;28;20021;-64
2023/04/02 11:11:54;;;;;;;0.40;0.40;;;;;;;11.93;25.58;102016.03;5065458;28;20040;-64
2023/04/02 11:14:25;;;;;;;0.40;0.40;;;;;;;11.84;26.94;102017.66;5065516;28;20037;-72
2023/04/02 11:16:53;;;;;;;0.40;0.40;;;;;;;12.30;26.96;102008.63;5065655;28;20031;-73
2023/04/02 11:19:18;;;;;;;0.40;0.40;;;;;;;12.81;27.17;102008.22;5065573;28;20025;-73
2023/04/02 11:21:56;;;;;;;0.40;0.40;;;;;;;13.17;25.93;102023.25;5047178;28;20027;-72
2023/04/02 11:24:31;;;;;;;0.40;0.40;;;;;;;13.03;25.98;102024.03;5063980;28;20043;-72
2023/04/02 11:27:10;;;;;;;0.40;0.40;;;;;;;13.08;25.77;102018.88;5065984;28;20387;-73
2023/04/02 11:29:46;;;;;;;0.60;0.60;;;;;;;12.63;25.19;102011.56;5047594;28;20079;-72
2023/04/02 11:32:22;;;;;;;0.40;0.40;;;;;;;11.43;25.58;102023.19;5047405;28;20031;-74
2023/04/02 11:34:48;;;;;;;0.50;0.50;;;;;;;10.07;26.81;102033.84;5047396;28;20029;-74
2023/04/02 11:37:29;;;;;;;0.40;0.40;;;;;;;9.02;27.58;102040.25;5065295;28;20025;-73
2023/04/02 11:39:58;;;;;;;0.50;0.50;;;;;;;8.40;28.66;102036.91;5065165;28;20017;-72
2023/04/02 11:42:31;;;;;;;0.50;0.50;;;;;;;7.87;29.25;102039.75;5065464;28;20027;-69
2023/04/02 11:45:27;;;;;;;0.40;0.40;;;;;;;7.49;30.47;102040.34;5065331;28;20021;-68
2023/04/02 11:47:58;;;;;;;0.50;0.50;;;;;;;7.38;30.86;102034.88;5065350;28;20674;-69
2023/04/02 11:50:31;;;;;;;0.60;0.60;;;;;;;7.40;31.55;102043.53;5064875;28;20075;-68
2023/04/02 11:53:10;;;;;;;0.50;0.50;;;;;;;7.37;31.58;102048.59;5064870;28;20529;-69
2023/04/02 11:55:44;;;;;;;0.50;0.50;;;;;;;7.36;31.41;102036.50;5064692;28;20032;-70
2023/04/02 11:58:24;;;;;;;0.50;0.50;;;;;;;7.38;30.49;102056.38;5064606;28;20032;-69
2023/04/02 12:01:10;;;;;;;0.50;0.50;;;;;;;7.01;31.22;102058.66;5065079;28;20153;-70
2023/04/02 12:04:01;;;;;;;0.50;0.50;;;;;;;6.92;31.88;102061.81;5064183;28;20053;-70
2023/04/02 12:06:38;;;;;;;0.50;0.50;;;;;;;7.03;31.41;102048.38;5045554;28;20788;-71